createdAt,value
2017-09-22T00:00:47.849Z,12.67
2017-09-22T00:03:15.294Z,12.55
2017-09-22T00:05:42.784Z,12.55
2017-09-22T00:08:10.229Z,12.55
2017-09-22T00:10:37.709Z,12.51
2017-09-22T00:13:05.176Z,12.44
2017-09-22T00:15:33.000Z,12.31
2017-09-22T00:18:00.457Z,12.26
2017-09-22T00:20:27.916Z,12.27
2017-09-22T00:22:55.400Z,12.19
2017-09-22T00:25:22.903Z,12.11
2017-09-22T00:27:50.386Z,12.11
2017-09-22T00:30:17.885Z,12.10
2017-09-22T00:32:45.429Z,12.01
2017-09-22T00:35:12.915Z,12.07
2017-09-22T00:37:40.384Z,12.09
2017-09-22T00:40:07.873Z,12.05
2017-09-22T00:42:35.472Z,11.99
2017-09-22T00:45:02.915Z,11.98
2017-09-22T00:47:30.403Z,12.02
2017-09-22T00:49:57.885Z,11.99
2017-09-22T00:52:25.346Z,11.90
2017-09-22T00:54:52.837Z,11.73
2017-09-22T00:57:20.281Z,11.69
2017-09-22T00:59:47.759Z,11.61
2017-09-22T01:02:15.205Z,11.47
2017-09-22T01:04:42.724Z,11.45
2017-09-22T01:07:10.253Z,11.56
2017-09-22T01:09:37.746Z,11.61
2017-09-22T01:12:05.229Z,11.55
2017-09-22T01:14:32.672Z,11.59
2017-09-22T01:17:00.146Z,11.64
2017-09-22T01:19:27.604Z,11.51
2017-09-22T01:21:55.084Z,11.28
2017-09-22T01:24:22.551Z,11.38
2017-09-22T01:26:50.024Z,11.43
2017-09-22T01:29:17.483Z,11.43
2017-09-22T01:31:44.969Z,11.43
2017-09-22T01:34:12.481Z,11.38
2017-09-22T01:36:39.942Z,11.36
2017-09-22T01:39:07.420Z,11.41
2017-09-22T01:41:34.896Z,11.43
2017-09-22T01:44:02.380Z,11.28
2017-09-22T01:46:29.855Z,11.34
2017-09-22T01:48:57.348Z,11.28
2017-09-22T01:51:24.821Z,11.20
2017-09-22T01:53:52.281Z,11.17
2017-09-22T01:56:19.749Z,11.25
2017-09-22T01:58:47.229Z,11.26
2017-09-22T02:01:14.690Z,11.24
2017-09-22T02:03:42.174Z,11.28
2017-09-22T02:06:09.645Z,11.33
2017-09-22T02:08:37.125Z,11.36
2017-09-22T02:11:04.586Z,11.32
2017-09-22T02:13:32.083Z,11.35
2017-09-22T02:15:59.575Z,11.30
2017-09-22T02:18:27.017Z,11.28
2017-09-22T02:20:54.506Z,11.36
2017-09-22T02:23:21.973Z,11.37
2017-09-22T02:25:49.450Z,11.37
2017-09-22T02:28:16.897Z,11.37
2017-09-22T02:30:44.365Z,11.25
2017-09-22T02:33:11.809Z,11.16
2017-09-22T02:35:39.310Z,11.17
2017-09-22T02:38:06.819Z,11.14
2017-09-22T02:40:34.285Z,11.17
2017-09-22T02:43:01.770Z,11.14
2017-09-22T02:45:29.237Z,11.10
2017-09-22T02:47:56.697Z,11.08
2017-09-22T02:50:24.165Z,11.11
2017-09-22T02:52:51.656Z,11.05
2017-09-22T02:55:19.165Z,11.06
2017-09-22T02:57:46.630Z,11.13
2017-09-22T03:00:14.109Z,11.12
2017-09-22T03:02:41.584Z,11.03
2017-09-22T03:05:09.067Z,11.10
2017-09-22T03:07:36.513Z,11.11
2017-09-22T03:10:03.992Z,11.12
2017-09-22T03:12:31.463Z,11.06
2017-09-22T03:14:58.951Z,11.04
2017-09-22T03:17:26.392Z,11.05
2017-09-22T03:19:54.207Z,11.11
2017-09-22T03:22:21.663Z,11.10
2017-09-22T03:24:49.116Z,11.04
2017-09-22T03:27:16.620Z,10.97
2017-09-22T03:29:44.082Z,10.97
2017-09-22T03:32:11.562Z,10.97
2017-09-22T03:34:39.025Z,11.01
2017-09-22T03:37:06.509Z,11.07
2017-09-22T03:39:33.968Z,11.07
2017-09-22T03:42:01.469Z,10.96
2017-09-22T03:44:28.929Z,10.90
2017-09-22T03:46:56.396Z,10.81
2017-09-22T03:49:23.868Z,10.71
2017-09-22T03:51:51.333Z,10.74
2017-09-22T03:54:18.841Z,10.68
2017-09-22T03:56:46.290Z,10.68
2017-09-22T03:59:13.761Z,10.61
2017-09-22T04:01:42.125Z,10.64
2017-09-22T04:04:09.598Z,10.67
2017-09-22T04:06:37.057Z,10.68
2017-09-22T04:09:04.526Z,10.65
2017-09-22T04:11:32.041Z,10.59
2017-09-22T04:13:59.505Z,10.53
2017-09-22T04:16:26.996Z,10.61
2017-09-22T04:18:54.444Z,10.66
2017-09-22T04:21:21.922Z,10.68
2017-09-22T04:23:49.377Z,10.68
2017-09-22T04:26:16.864Z,10.71
2017-09-22T04:28:44.325Z,10.66
2017-09-22T04:31:11.810Z,10.57
2017-09-22T04:33:39.266Z,10.52
2017-09-22T04:36:06.753Z,10.51
2017-09-22T04:38:34.212Z,10.61
2017-09-22T04:41:01.678Z,10.64
2017-09-22T04:43:29.159Z,10.66
2017-09-22T04:45:56.613Z,10.68
2017-09-22T04:48:24.095Z,10.63
2017-09-22T04:50:51.545Z,10.62
2017-09-22T04:53:19.120Z,10.46
2017-09-22T04:55:46.598Z,10.43
2017-09-22T04:58:14.071Z,10.43
2017-09-22T05:00:41.519Z,10.44
2017-09-22T05:03:08.959Z,10.40
2017-09-22T05:05:36.451Z,10.34
2017-09-22T05:08:03.910Z,10.28
2017-09-22T05:10:31.394Z,10.14
2017-09-22T05:12:58.860Z,10.19
2017-09-22T05:15:26.355Z,10.23
2017-09-22T05:17:53.807Z,10.25
2017-09-22T05:20:21.282Z,10.21
2017-09-22T05:22:48.725Z,10.14
2017-09-22T05:25:16.217Z,9.99
2017-09-22T05:27:43.710Z,9.97
2017-09-22T05:30:11.234Z,10.05
2017-09-22T05:32:38.706Z,10.09
2017-09-22T05:35:06.160Z,10.13
2017-09-22T05:37:33.649Z,10.14
2017-09-22T05:40:01.097Z,10.09
2017-09-22T05:42:28.594Z,10.06
2017-09-22T05:44:56.058Z,10.09
2017-09-22T05:47:23.591Z,10.17
2017-09-22T05:49:51.036Z,10.14
2017-09-22T05:52:18.524Z,9.90
2017-09-22T05:54:46.007Z,10.18
2017-09-22T05:57:13.487Z,10.33
2017-09-22T05:59:41.011Z,10.40
2017-09-22T06:02:08.479Z,10.25
2017-09-22T06:04:36.015Z,10.20
2017-09-22T06:07:03.491Z,10.25
2017-09-22T06:09:30.964Z,10.38
2017-09-22T06:11:59.330Z,10.34
2017-09-22T06:14:26.814Z,10.30
2017-09-22T06:16:54.265Z,10.24
2017-09-22T06:19:21.794Z,10.25
2017-09-22T06:21:49.261Z,10.27
2017-09-22T06:24:16.737Z,10.39
2017-09-22T06:26:44.221Z,10.59
2017-09-22T06:29:11.679Z,10.69
2017-09-22T06:31:39.171Z,10.65
2017-09-22T06:34:07.074Z,10.68
2017-09-22T06:36:34.568Z,10.73
2017-09-22T06:39:02.029Z,10.78
2017-09-22T06:41:29.521Z,10.89
2017-09-22T06:43:57.096Z,11.08
2017-09-22T06:46:24.591Z,11.16
2017-09-22T06:48:52.149Z,11.17
2017-09-22T06:51:19.618Z,11.16
2017-09-22T06:53:47.144Z,11.25
2017-09-22T06:56:14.597Z,11.40
2017-09-22T06:58:42.129Z,11.49
2017-09-22T07:01:09.578Z,11.53
2017-09-22T07:03:37.154Z,11.57
2017-09-22T07:06:04.660Z,11.61
2017-09-22T07:08:32.200Z,11.74
2017-09-22T07:10:59.705Z,11.86
2017-09-22T07:13:27.174Z,12.04
2017-09-22T07:15:54.650Z,12.13
2017-09-22T07:18:22.118Z,12.22
2017-09-22T07:20:49.620Z,12.28
2017-09-22T07:23:17.117Z,12.32
2017-09-22T07:25:44.617Z,12.36
2017-09-22T07:28:12.119Z,12.47
2017-09-22T07:30:39.671Z,12.43
2017-09-22T07:33:07.229Z,12.69
2017-09-22T07:35:34.726Z,12.80
2017-09-22T07:38:02.226Z,12.86
2017-09-22T07:40:29.742Z,12.91
2017-09-22T07:42:57.228Z,13.01
2017-09-22T07:45:24.730Z,13.20
2017-09-22T07:47:53.276Z,13.23
2017-09-22T07:50:20.846Z,13.40
2017-09-22T07:52:48.438Z,13.49
2017-09-22T07:55:15.913Z,13.51
2017-09-22T07:57:43.414Z,13.60
2017-09-22T08:00:10.912Z,13.41
2017-09-22T08:02:38.382Z,13.60
2017-09-22T08:05:05.860Z,13.72
2017-09-22T08:07:33.337Z,13.74
2017-09-22T08:10:00.844Z,13.79
2017-09-22T08:12:28.318Z,13.86
2017-09-22T08:14:55.808Z,13.94
2017-09-22T08:17:23.265Z,14.00
2017-09-22T08:19:50.846Z,14.08
2017-09-22T08:22:18.337Z,14.17
2017-09-22T08:24:45.870Z,14.36
2017-09-22T08:27:13.387Z,14.57
2017-09-22T08:29:40.845Z,14.75
2017-09-22T08:32:08.335Z,14.74
2017-09-22T08:34:35.820Z,14.78
2017-09-22T08:37:03.318Z,14.99
2017-09-22T08:39:30.781Z,15.10
2017-09-22T08:41:58.269Z,15.18
2017-09-22T08:44:25.733Z,15.06
2017-09-22T08:46:53.210Z,15.23
2017-09-22T08:49:20.790Z,15.25
2017-09-22T08:51:48.252Z,15.38
2017-09-22T08:54:15.762Z,15.57
2017-09-22T08:56:43.253Z,15.72
2017-09-22T08:59:10.764Z,15.82
2017-09-22T09:01:38.256Z,15.84
2017-09-22T09:04:05.750Z,15.94
2017-09-22T09:06:33.251Z,15.95
2017-09-22T09:09:00.747Z,16.01
2017-09-22T09:11:28.243Z,16.16
2017-09-22T09:13:55.773Z,16.26
2017-09-22T09:16:23.237Z,16.43
2017-09-22T09:18:50.708Z,16.56
2017-09-22T09:21:18.246Z,16.56
2017-09-22T09:23:45.737Z,16.57
2017-09-22T09:26:13.274Z,16.61
2017-09-22T09:28:40.775Z,16.64
2017-09-22T09:31:08.294Z,16.66
2017-09-22T09:33:35.763Z,16.81
2017-09-22T09:36:03.764Z,16.91
2017-09-22T09:38:31.260Z,16.98
2017-09-22T09:40:58.727Z,17.09
2017-09-22T09:43:26.281Z,17.18
2017-09-22T09:45:53.788Z,17.28
2017-09-22T09:48:21.330Z,17.34
2017-09-22T09:50:48.837Z,17.44
2017-09-22T09:53:16.343Z,17.47
2017-09-22T09:55:43.849Z,17.54
2017-09-22T09:58:11.342Z,17.64
2017-09-22T10:00:38.806Z,17.81
2017-09-22T10:03:06.293Z,17.91
2017-09-22T10:05:33.762Z,17.96
2017-09-22T10:08:01.252Z,18.03
2017-09-22T10:10:28.745Z,18.11
2017-09-22T10:12:56.194Z,18.03
2017-09-22T10:15:23.688Z,18.19
2017-09-22T10:17:51.158Z,18.31
2017-09-22T10:20:18.644Z,18.42
2017-09-22T10:22:46.128Z,18.32
2017-09-22T10:25:13.621Z,18.26
2017-09-22T10:27:41.838Z,18.54
2017-09-22T10:30:09.316Z,18.65
2017-09-22T10:32:36.813Z,18.67
2017-09-22T10:35:04.290Z,18.80
2017-09-22T10:37:31.784Z,18.91
2017-09-22T10:39:59.285Z,18.98
2017-09-22T10:42:26.774Z,19.14
2017-09-22T10:44:54.233Z,19.08
2017-09-22T10:47:21.765Z,19.20
2017-09-22T10:49:49.253Z,19.40
2017-09-22T10:52:17.223Z,19.57
2017-09-22T10:54:44.693Z,19.40
2017-09-22T10:57:12.160Z,19.47
2017-09-22T10:59:40.467Z,19.44
2017-09-22T11:02:07.952Z,19.55
2017-09-22T11:04:35.465Z,19.73
2017-09-22T11:07:02.951Z,19.61
2017-09-22T11:09:30.428Z,19.54
2017-09-22T11:11:57.900Z,19.66
2017-09-22T11:14:25.418Z,19.54
2017-09-22T11:16:52.947Z,19.58
2017-09-22T11:19:20.433Z,19.74
2017-09-22T11:21:47.949Z,19.85
2017-09-22T11:24:15.402Z,20.06
2017-09-22T11:26:42.914Z,20.24
2017-09-22T11:29:10.382Z,20.24
2017-09-22T11:31:37.419Z,19.94
2017-09-22T11:34:04.334Z,19.91
2017-09-22T11:36:31.826Z,19.98
2017-09-22T11:38:59.314Z,20.23
2017-09-22T11:41:26.777Z,20.51
2017-09-22T11:43:54.265Z,20.54
2017-09-22T11:46:21.764Z,20.70
2017-09-22T11:48:49.268Z,20.51
2017-09-22T11:51:16.737Z,20.55
2017-09-22T11:53:44.245Z,20.86
2017-09-22T11:56:11.739Z,21.05
2017-09-22T11:58:39.200Z,21.18
2017-09-22T12:01:06.761Z,21.28
2017-09-22T12:03:34.213Z,21.39
2017-09-22T12:06:01.699Z,21.48
2017-09-22T12:08:29.179Z,21.54
2017-09-22T12:10:56.676Z,21.64
2017-09-22T12:13:24.164Z,21.72
2017-09-22T12:15:51.613Z,21.76
2017-09-22T12:18:19.165Z,21.79
2017-09-22T12:20:46.622Z,21.91
2017-09-22T12:23:14.141Z,22.11
2017-09-22T12:25:41.612Z,21.99
2017-09-22T12:28:09.121Z,22.11
2017-09-22T12:30:36.638Z,22.23
2017-09-22T12:33:04.099Z,22.36
2017-09-22T12:35:31.604Z,22.55
2017-09-22T12:37:59.127Z,22.76
2017-09-22T12:40:26.613Z,22.56
2017-09-22T12:42:54.073Z,22.32
2017-09-22T12:45:21.570Z,22.09
2017-09-22T12:47:49.065Z,21.97
2017-09-22T12:50:16.522Z,22.01
2017-09-22T12:52:44.009Z,21.99
2017-09-22T12:55:11.485Z,21.95
2017-09-22T12:57:39.069Z,21.88
2017-09-22T13:00:06.515Z,22.08
2017-09-22T13:02:33.993Z,22.42
2017-09-22T13:05:01.489Z,22.49
2017-09-22T13:07:29.057Z,22.47
2017-09-22T13:09:56.864Z,22.37
2017-09-22T13:12:24.330Z,22.48
2017-09-22T13:14:51.835Z,22.47
2017-09-22T13:17:19.363Z,22.66
2017-09-22T13:19:46.844Z,23.06
2017-09-22T13:22:14.309Z,23.44
2017-09-22T13:24:41.793Z,23.35
2017-09-22T13:27:09.257Z,23.52
2017-09-22T13:29:36.754Z,23.65
2017-09-22T13:32:04.276Z,23.74
2017-09-22T13:34:31.769Z,23.25
2017-09-22T13:36:59.230Z,23.08
2017-09-22T13:39:26.793Z,22.72
2017-09-22T13:41:54.275Z,22.92
2017-09-22T13:44:21.743Z,23.02
2017-09-22T13:46:49.255Z,22.91
2017-09-22T13:49:16.753Z,22.81
2017-09-22T13:51:44.245Z,22.62
2017-09-22T13:54:11.753Z,22.62
2017-09-22T13:56:39.260Z,22.73
2017-09-22T13:59:06.757Z,22.51
2017-09-22T14:01:34.238Z,22.51
2017-09-22T14:04:01.748Z,22.61
2017-09-22T14:06:29.214Z,22.70
2017-09-22T14:08:56.722Z,22.72
2017-09-22T14:11:24.182Z,22.56
2017-09-22T14:13:51.693Z,22.47
2017-09-22T14:16:19.228Z,22.54
2017-09-22T14:18:46.681Z,22.50
2017-09-22T14:21:14.194Z,22.40
2017-09-22T14:23:41.673Z,22.28
2017-09-22T14:26:09.175Z,22.29
2017-09-22T14:28:36.684Z,22.25
2017-09-22T14:31:04.197Z,22.22
2017-09-22T14:33:31.705Z,22.21
2017-09-22T14:35:59.225Z,22.15
2017-09-22T14:38:26.716Z,22.19
2017-09-22T14:40:54.206Z,22.20
2017-09-22T14:43:21.695Z,22.21
2017-09-22T14:45:49.184Z,22.26
2017-09-22T14:48:16.677Z,22.34
2017-09-22T14:50:44.202Z,22.47
2017-09-22T14:53:11.728Z,22.65
2017-09-22T14:55:39.201Z,22.78
2017-09-22T14:58:06.714Z,22.86
2017-09-22T15:00:34.190Z,22.89
2017-09-22T15:03:01.639Z,22.92
2017-09-22T15:05:29.151Z,22.95
2017-09-22T15:07:56.637Z,23.08
2017-09-22T15:10:24.133Z,23.31
2017-09-22T15:12:51.589Z,23.46
2017-09-22T15:15:19.170Z,23.46
2017-09-22T15:17:46.701Z,23.38
2017-09-22T15:20:14.236Z,23.21
2017-09-22T15:22:41.684Z,23.14
2017-09-22T15:25:09.186Z,23.11
2017-09-22T15:27:36.641Z,23.14
2017-09-22T15:30:04.136Z,23.11
2017-09-22T15:32:31.671Z,22.98
2017-09-22T15:34:59.133Z,22.88
2017-09-22T15:37:26.949Z,22.86
2017-09-22T15:39:54.441Z,22.58
2017-09-22T15:42:22.104Z,22.60
2017-09-22T15:44:49.586Z,22.43
2017-09-22T15:47:17.095Z,22.56
2017-09-22T15:49:44.630Z,22.62
2017-09-22T15:52:12.150Z,22.58
2017-09-22T15:54:39.607Z,22.62
2017-09-22T15:57:07.083Z,22.54
2017-09-22T15:59:34.580Z,22.42
2017-09-22T16:02:02.043Z,22.37
2017-09-22T16:04:29.550Z,22.30
2017-09-22T16:06:57.002Z,22.21
2017-09-22T16:09:24.457Z,22.19
2017-09-22T16:11:51.962Z,22.22
2017-09-22T16:14:19.599Z,22.25
2017-09-22T16:16:47.076Z,22.16
2017-09-22T16:19:14.744Z,22.14
2017-09-22T16:21:42.216Z,22.03
2017-09-22T16:24:09.684Z,22.08
2017-09-22T16:26:37.858Z,22.08
2017-09-22T16:29:05.318Z,22.03
2017-09-22T16:31:32.806Z,22.01
2017-09-22T16:34:00.283Z,21.92
2017-09-22T16:36:27.778Z,21.85
2017-09-22T16:38:55.236Z,21.85
2017-09-22T16:41:22.716Z,21.78
2017-09-22T16:43:50.233Z,21.81
2017-09-22T16:46:17.995Z,21.77
2017-09-22T16:48:45.460Z,21.81
2017-09-22T16:51:13.126Z,21.81
2017-09-22T16:53:40.641Z,21.74
2017-09-22T16:56:08.109Z,21.67
2017-09-22T16:58:35.782Z,21.56
2017-09-22T17:01:03.268Z,21.55
2017-09-22T17:03:30.789Z,21.55
2017-09-22T17:05:58.248Z,21.53
2017-09-22T17:08:25.849Z,21.45
2017-09-22T17:10:53.331Z,21.42
2017-09-22T17:13:20.825Z,21.41
2017-09-22T17:15:48.329Z,21.30
2017-09-22T17:18:15.800Z,21.18
2017-09-22T17:20:43.271Z,21.14
2017-09-22T17:23:10.765Z,21.10
2017-09-22T17:25:38.279Z,21.10
2017-09-22T17:28:05.741Z,21.05
2017-09-22T17:30:33.226Z,20.98
2017-09-22T17:33:00.698Z,20.95
2017-09-22T17:35:28.217Z,20.86
2017-09-22T17:37:55.691Z,20.76
2017-09-22T17:40:23.206Z,20.66
2017-09-22T17:42:50.698Z,20.51
2017-09-22T17:45:18.189Z,20.43
2017-09-22T17:47:45.638Z,20.38
2017-09-22T17:50:13.187Z,20.34
2017-09-22T17:52:40.649Z,20.22
2017-09-22T17:55:08.190Z,20.19
2017-09-22T17:57:35.693Z,20.15
2017-09-22T18:00:03.174Z,20.09
2017-09-22T18:02:30.650Z,19.96
2017-09-22T18:04:58.113Z,19.97
2017-09-22T18:07:25.606Z,20.03
2017-09-22T18:09:53.168Z,19.99
2017-09-22T18:12:20.617Z,19.98
2017-09-22T18:14:48.105Z,19.97
2017-09-22T18:17:15.586Z,19.96
2017-09-22T18:19:43.107Z,19.94
2017-09-22T18:22:10.636Z,19.90
2017-09-22T18:24:38.149Z,19.79
2017-09-22T18:27:05.601Z,19.75
2017-09-22T18:29:33.093Z,19.65
2017-09-22T18:32:00.548Z,19.65
2017-09-22T18:34:28.221Z,19.65
2017-09-22T18:36:55.695Z,19.55
2017-09-22T18:39:23.161Z,19.49
2017-09-22T18:41:50.655Z,19.42
2017-09-22T18:44:18.168Z,19.26
2017-09-22T18:46:45.674Z,19.16
2017-09-22T18:49:13.154Z,19.10
2017-09-22T18:51:40.654Z,19.02
2017-09-22T18:54:08.110Z,18.97
2017-09-22T18:56:35.691Z,18.88
2017-09-22T18:59:03.995Z,18.81
2017-09-22T19:01:31.474Z,18.79
2017-09-22T19:03:58.978Z,18.78
2017-09-22T19:06:26.459Z,18.84
2017-09-22T19:08:53.962Z,18.67
2017-09-22T19:11:21.429Z,18.55
2017-09-22T19:13:49.000Z,18.46
2017-09-22T19:16:16.504Z,18.49
2017-09-22T19:18:43.991Z,18.45
2017-09-22T19:21:11.538Z,18.39
2017-09-22T19:23:39.021Z,18.33
2017-09-22T19:26:06.521Z,18.22
2017-09-22T19:28:34.020Z,18.15
2017-09-22T19:31:01.490Z,18.09
2017-09-22T19:33:29.899Z,17.80
2017-09-22T19:35:57.420Z,17.83
2017-09-22T19:38:24.910Z,17.83
2017-09-22T19:40:52.405Z,17.79
2017-09-22T19:43:19.862Z,17.75
2017-09-22T19:45:47.339Z,17.59
2017-09-22T19:48:14.826Z,17.63
2017-09-22T19:50:42.302Z,17.62
2017-09-22T19:53:09.816Z,17.59
2017-09-22T19:55:37.292Z,17.57
2017-09-22T19:58:04.767Z,17.56
2017-09-22T20:00:32.234Z,17.53
2017-09-22T20:02:59.733Z,17.50
2017-09-22T20:05:27.218Z,17.57
2017-09-22T20:07:54.767Z,17.52
2017-09-22T20:10:22.239Z,17.50
2017-09-22T20:12:49.738Z,17.51
2017-09-22T20:15:17.221Z,17.54
2017-09-22T20:17:44.702Z,17.53
2017-09-22T20:20:12.172Z,17.41
2017-09-22T20:22:39.670Z,17.33
2017-09-22T20:25:07.144Z,17.36
2017-09-22T20:27:34.634Z,17.30
2017-09-22T20:30:02.133Z,17.27
2017-09-22T20:32:29.605Z,17.22
2017-09-22T20:34:57.117Z,17.20
2017-09-22T20:37:24.594Z,17.19
2017-09-22T20:39:52.084Z,17.11
2017-09-22T20:42:19.558Z,17.07
2017-09-22T20:44:47.056Z,16.99
2017-09-22T20:47:14.523Z,16.98
2017-09-22T20:49:42.020Z,16.98
2017-09-22T20:52:09.506Z,16.96
2017-09-22T20:54:37.036Z,16.92
2017-09-22T20:57:04.540Z,16.83
2017-09-22T20:59:32.041Z,16.76
2017-09-22T21:01:59.562Z,16.75
2017-09-22T21:04:27.026Z,16.68
2017-09-22T21:06:54.522Z,16.67
2017-09-22T21:09:21.977Z,16.64
2017-09-22T21:11:49.482Z,16.60
2017-09-22T21:14:16.939Z,16.61
2017-09-22T21:16:44.430Z,16.62
2017-09-22T21:19:11.927Z,16.70
2017-09-22T21:21:39.411Z,16.52
2017-09-22T21:24:06.899Z,16.67
2017-09-22T21:26:34.369Z,16.60
2017-09-22T21:29:01.882Z,16.59
2017-09-22T21:31:29.352Z,16.58
2017-09-22T21:33:56.842Z,16.54
2017-09-22T21:36:24.337Z,16.50
2017-09-22T21:38:51.855Z,16.49
2017-09-22T21:41:19.416Z,16.51
2017-09-22T21:43:46.968Z,16.46
2017-09-22T21:46:14.462Z,16.42
2017-09-22T21:48:42.005Z,16.45
2017-09-22T21:51:09.521Z,16.47
2017-09-22T21:53:36.978Z,16.53
2017-09-22T21:56:04.465Z,16.58
2017-09-22T21:58:31.983Z,16.52
2017-09-22T22:00:59.518Z,16.43
2017-09-22T22:03:32.455Z,16.29
2017-09-22T22:06:05.660Z,16.26
2017-09-22T22:08:33.163Z,16.32
2017-09-22T22:11:00.642Z,16.35
2017-09-22T22:13:28.099Z,16.32
2017-09-22T22:15:55.720Z,16.29
2017-09-22T22:18:23.220Z,16.28
2017-09-22T22:20:50.734Z,16.27
2017-09-22T22:23:18.257Z,16.24
2017-09-22T22:25:45.853Z,16.21
2017-09-22T22:28:14.478Z,16.24
2017-09-22T22:30:41.941Z,16.27
2017-09-22T22:33:09.432Z,16.22
2017-09-22T22:35:36.893Z,16.17
2017-09-22T22:38:04.388Z,16.13
2017-09-22T22:40:31.865Z,16.11
2017-09-22T22:42:59.364Z,16.03
2017-09-22T22:45:26.863Z,15.97
2017-09-22T22:47:54.322Z,15.92
2017-09-22T22:50:21.822Z,15.88
2017-09-22T22:52:49.309Z,15.60
2017-09-22T22:55:16.815Z,15.64
2017-09-22T22:57:44.309Z,15.68
2017-09-22T23:00:11.810Z,15.67
2017-09-22T23:02:39.290Z,15.60
2017-09-22T23:05:06.770Z,15.59
2017-09-22T23:07:34.252Z,15.60
2017-09-22T23:10:01.770Z,15.55
2017-09-22T23:12:29.261Z,15.55
2017-09-22T23:14:56.706Z,15.44
2017-09-22T23:17:24.192Z,15.41
2017-09-22T23:19:51.648Z,15.44
2017-09-22T23:22:19.168Z,15.44
2017-09-22T23:24:47.121Z,15.35
2017-09-22T23:27:14.627Z,15.20
2017-09-22T23:29:42.116Z,15.17
2017-09-22T23:32:09.615Z,15.17
2017-09-22T23:34:37.069Z,15.16
2017-09-22T23:37:04.563Z,15.12
2017-09-22T23:39:32.117Z,15.17
2017-09-22T23:41:59.589Z,15.15
2017-09-22T23:44:27.096Z,15.07
2017-09-22T23:46:54.564Z,15.00
2017-09-22T23:49:22.081Z,15.06
2017-09-22T23:51:49.542Z,15.08
2017-09-22T23:54:17.040Z,15.13
2017-09-22T23:56:44.489Z,15.22
2017-09-22T23:59:11.993Z,15.24
